sensor_id;sensor_type;location;lat;lon;timestamp;pressure;altitude;pressure_sealevel;temperature;humidity
47883;BME280;37739;50.350;7.578;2024-03-23T00:54:08;98908.41;;;11.35;89.99
47883;BME280;37739;50.350;7.578;2024-03-23T00:56:35;98904.94;;;11.33;90.58
47883;BME280;37739;50.350;7.578;2024-03-23T00:59:01;98893.00;;;11.34;90.04
47883;BME280;37739;50.350;7.578;2024-03-23T01:01:29;98898.00;;;11.29;90.85
47883;BME280;37739;50.350;7.578;2024-03-23T01:03:55;98897.03;;;11.23;90.59
47883;BME280;37739;50.350;7.578;2024-03-23T01:06:20;98900.38;;;11.18;90.56
47883;BME280;37739;50.350;7.578;2024-03-23T01:08:45;98890.91;;;11.14;90.54
47883;BME280;37739;50.350;7.578;2024-03-23T01:11:11;98891.75;;;11.15;90.39
47883;BME280;37739;50.350;7.578;2024-03-23T01:13:37;98893.34;;;11.10;90.64
47883;BME280;37739;50.350;7.578;2024-03-23T01:16:02;98898.56;;;11.13;90.75
47883;BME280;37739;50.350;7.578;2024-03-23T01:18:27;98883.13;;;11.11;91.27
47883;BME280;37739;50.350;7.578;2024-03-23T01:20:54;98882.34;;;11.15;90.98
47883;BME280;37739;50.350;7.578;2024-03-23T01:23:19;98880.47;;;11.08;91.26
47883;BME280;37739;50.350;7.578;2024-03-23T01:25:55;98900.13;;;11.06;93.33
47883;BME280;37739;50.350;7.578;2024-03-23T01:28:21;98899.84;;;10.92;95.96
47883;BME280;37739;50.350;7.578;2024-03-23T01:30:49;98894.53;;;10.85;96.60
47883;BME280;37739;50.350;7.578;2024-03-23T01:33:15;98897.28;;;10.92;97.28
47883;BME280;37739;50.350;7.578;2024-03-23T01:35:43;98887.50;;;10.36;100.00
47883;BME280;37739;50.350;7.578;2024-03-23T01:38:09;98881.59;;;10.06;100.00
47883;BME280;37739;50.350;7.578;2024-03-23T01:40:34;98895.69;;;9.88;100.00
47883;BME280;37739;50.350;7.578;2024-03-23T01:43:05;98883.59;;;9.82;100.00
47883;BME280;37739;50.350;7.578;2024-03-23T01:45:31;98875.88;;;9.48;100.00
47883;BME280;37739;50.350;7.578;2024-03-23T01:48:00;98872.06;;;9.32;100.00
47883;BME280;37739;50.350;7.578;2024-03-23T01:50:26;98877.44;;;9.11;100.00
47883;BME280;37739;50.350;7.578;2024-03-23T01:52:54;98877.78;;;8.93;100.00
47883;BME280;37739;50.350;7.578;2024-03-23T01:55:20;98885.22;;;8.83;100.00
47883;BME280;37739;50.350;7.578;2024-03-23T01:57:48;98885.72;;;9.02;100.00
47883;BME280;37739;50.350;7.578;2024-03-23T02:00:16;98888.00;;;9.23;100.00
47883;BME280;37739;50.350;7.578;2024-03-23T02:02:45;98888.75;;;9.19;100.00
47883;BME280;37739;50.350;7.578;2024-03-23T02:05:11;98893.50;;;9.05;100.00
47883;BME280;37739;50.350;7.578;2024-03-23T02:07:38;98892.66;;;9.06;100.00
47883;BME280;37739;50.350;7.578;2024-03-23T02:10:06;98871.38;;;9.07;100.00
47883;BME280;37739;50.350;7.578;2024-03-23T02:12:31;98870.56;;;8.79;100.00
47883;BME280;37739;50.350;7.578;2024-03-23T02:14:57;98858.00;;;8.57;100.00
47883;BME280;37739;50.350;7.578;2024-03-23T02:17:22;98860.13;;;8.43;100.00
47883;BME280;37739;50.350;7.578;2024-03-23T02:19:48;98879.97;;;8.24;100.00
47883;BME280;37739;50.350;7.578;2024-03-23T02:22:13;98885.13;;;8.26;100.00
47883;BME280;37739;50.350;7.578;2024-03-23T02:24:43;98882.34;;;8.45;100.00
47883;BME280;37739;50.350;7.578;2024-03-23T02:27:14;98883.81;;;8.39;100.00
47883;BME280;37739;50.350;7.578;2024-03-23T02:29:41;98876.06;;;8.63;100.00
47883;BME280;37739;50.350;7.578;2024-03-23T02:32:07;98868.06;;;8.81;100.00
47883;BME280;37739;50.350;7.578;2024-03-23T02:34:34;98876.00;;;8.90;100.00
47883;BME280;37739;50.350;7.578;2024-03-23T02:37:02;98884.69;;;8.95;100.00
47883;BME280;37739;50.350;7.578;2024-03-23T02:39:30;98877.59;;;8.87;100.00
47883;BME280;37739;50.350;7.578;2024-03-23T02:41:55;98877.75;;;8.62;100.00
47883;BME280;37739;50.350;7.578;2024-03-23T02:44:21;98879.25;;;8.56;100.00
47883;BME280;37739;50.350;7.578;2024-03-23T02:46:52;98882.63;;;8.28;100.00
47883;BME280;37739;50.350;7.578;2024-03-23T02:49:20;98874.44;;;8.38;100.00
47883;BME280;37739;50.350;7.578;2024-03-23T02:51:50;98872.59;;;8.34;100.00
47883;BME280;37739;50.350;7.578;2024-03-23T02:54:15;98879.59;;;8.41;100.00
47883;BME280;37739;50.350;7.578;2024-03-23T02:56:41;98888.66;;;8.30;100.00
47883;BME280;37739;50.350;7.578;2024-03-23T02:59:08;98889.59;;;8.33;100.00
47883;BME280;37739;50.350;7.578;2024-03-23T03:01:36;98863.66;;;8.21;100.00
47883;BME280;37739;50.350;7.578;2024-03-23T03:04:04;98878.38;;;8.01;100.00
47883;BME280;37739;50.350;7.578;2024-03-23T03:06:33;98877.72;;;8.08;100.00
47883;BME280;37739;50.350;7.578;2024-03-23T03:08:58;98873.03;;;7.95;100.00
47883;BME280;37739;50.350;7.578;2024-03-23T03:11:26;98871.31;;;7.94;100.00
47883;BME280;37739;50.350;7.578;2024-03-23T03:13:51;98880.13;;;7.76;100.00
47883;BME280;37739;50.350;7.578;2024-03-23T03:16:19;98894.06;;;7.86;100.00
47883;BME280;37739;50.350;7.578;2024-03-23T03:18:44;98897.16;;;7.77;100.00
47883;BME280;37739;50.350;7.578;2024-03-23T03:21:12;98888.63;;;7.77;100.00
47883;BME280;37739;50.350;7.578;2024-03-23T03:23:44;98898.44;;;7.90;100.00
47883;BME280;37739;50.350;7.578;2024-03-23T03:26:12;98910.34;;;7.90;100.00
47883;BME280;37739;50.350;7.578;2024-03-23T03:28:37;98912.66;;;7.82;100.00
47883;BME280;37739;50.350;7.578;2024-03-23T03:31:02;98911.22;;;7.90;100.00
47883;BME280;37739;50.350;7.578;2024-03-23T03:33:28;98901.13;;;7.93;100.00
47883;BME280;37739;50.350;7.578;2024-03-23T03:35:53;98899.81;;;8.06;100.00
47883;BME280;37739;50.350;7.578;2024-03-23T03:38:19;98889.06;;;7.89;100.00
47883;BME280;37739;50.350;7.578;2024-03-23T03:40:47;98883.72;;;7.81;100.00
47883;BME280;37739;50.350;7.578;2024-03-23T03:43:15;98901.47;;;7.78;100.00
47883;BME280;37739;50.350;7.578;2024-03-23T03:45:54;98905.78;;;7.81;100.00
47883;BME280;37739;50.350;7.578;2024-03-23T03:48:19;98900.16;;;7.90;100.00
47883;BME280;37739;50.350;7.578;2024-03-23T03:50:44;98914.56;;;7.63;100.00
47883;BME280;37739;50.350;7.578;2024-03-23T03:53:10;98903.50;;;7.63;100.00
47883;BME280;37739;50.350;7.578;2024-03-23T03:55:35;98903.28;;;7.57;100.00
47883;BME280;37739;50.350;7.578;2024-03-23T03:58:01;98889.44;;;7.50;100.00
47883;BME280;37739;50.350;7.578;2024-03-23T04:00:26;98908.47;;;7.34;100.00
47883;BME280;37739;50.350;7.578;2024-03-23T04:02:52;98909.97;;;7.29;100.00
47883;BME280;37739;50.350;7.578;2024-03-23T04:05:19;98908.63;;;7.15;100.00
47883;BME280;37739;50.350;7.578;2024-03-23T04:07:45;98898.41;;;7.15;100.00
47883;BME280;37739;50.350;7.578;2024-03-23T04:10:13;98900.03;;;7.13;100.00
47883;BME280;37739;50.350;7.578;2024-03-23T04:12:38;98920.03;;;7.02;100.00
47883;BME280;37739;50.350;7.578;2024-03-23T04:15:04;98925.19;;;7.03;100.00
47883;BME280;37739;50.350;7.578;2024-03-23T04:17:32;98925.59;;;7.14;100.00
47883;BME280;37739;50.350;7.578;2024-03-23T04:20:00;98927.53;;;6.97;100.00
47883;BME280;37739;50.350;7.578;2024-03-23T04:22:31;98932.34;;;6.90;100.00
47883;BME280;37739;50.350;7.578;2024-03-23T04:24:57;98943.00;;;6.79;100.00
47883;BME280;37739;50.350;7.578;2024-03-23T04:27:25;98957.59;;;6.61;100.00
47883;BME280;37739;50.350;7.578;2024-03-23T04:29:51;98968.66;;;6.40;100.00
47883;BME280;37739;50.350;7.578;2024-03-23T04:32:19;98974.63;;;6.41;100.00
47883;BME280;37739;50.350;7.578;2024-03-23T04:34:44;98983.88;;;6.18;100.00
47883;BME280;37739;50.350;7.578;2024-03-23T04:37:11;98985.13;;;6.06;100.00
47883;BME280;37739;50.350;7.578;2024-03-23T04:39:37;98990.47;;;6.13;100.00
47883;BME280;37739;50.350;7.578;2024-03-23T04:42:06;98997.03;;;6.07;100.00
47883;BME280;37739;50.350;7.578;2024-03-23T04:44:31;99000.72;;;6.14;100.00
47883;BME280;37739;50.350;7.578;2024-03-23T04:47:00;98995.72;;;5.96;100.00
47883;BME280;37739;50.350;7.578;2024-03-23T04:49:25;98992.63;;;6.03;100.00
47883;BME280;37739;50.350;7.578;2024-03-23T04:51:55;99003.50;;;5.99;100.00
47883;BME280;37739;50.350;7.578;2024-03-23T04:54:20;98996.34;;;5.92;100.00
47883;BME280;37739;50.350;7.578;2024-03-23T04:56:46;99002.34;;;5.73;100.00
47883;BME280;37739;50.350;7.578;2024-03-23T04:59:11;99000.94;;;5.80;100.00
47883;BME280;37739;50.350;7.578;2024-03-23T05:01:37;98998.38;;;5.80;100.00
47883;BME280;37739;50.350;7.578;2024-03-23T05:04:08;98995.34;;;5.88;100.00
47883;BME280;37739;50.350;7.578;2024-03-23T05:06:34;99007.38;;;5.91;100.00
47883;BME280;37739;50.350;7.578;2024-03-23T05:09:02;99013.00;;;6.03;100.00
47883;BME280;37739;50.350;7.578;2024-03-23T05:11:32;99020.56;;;6.02;100.00
47883;BME280;37739;50.350;7.578;2024-03-23T05:13:58;99020.88;;;6.09;100.00
47883;BME280;37739;50.350;7.578;2024-03-23T05:16:26;99018.09;;;6.03;100.00
47883;BME280;37739;50.350;7.578;2024-03-23T05:18:52;99021.38;;;6.01;100.00
47883;BME280;37739;50.350;7.578;2024-03-23T05:21:20;99033.38;;;6.03;100.00
47883;BME280;37739;50.350;7.578;2024-03-23T05:23:45;99036.34;;;5.95;100.00
47883;BME280;37739;50.350;7.578;2024-03-23T05:26:10;99026.25;;;5.96;100.00
47883;BME280;37739;50.350;7.578;2024-03-23T05:28:38;99038.31;;;6.00;100.00
47883;BME280;37739;50.350;7.578;2024-03-23T05:31:03;99037.16;;;5.94;100.00
47883;BME280;37739;50.350;7.578;2024-03-23T05:33:33;99037.56;;;5.83;100.00
47883;BME280;37739;50.350;7.578;2024-03-23T05:36:02;99044.53;;;5.87;100.00
47883;BME280;37739;50.350;7.578;2024-03-23T05:38:29;99044.31;;;5.83;100.00
47883;BME280;37739;50.350;7.578;2024-03-23T05:40:58;99058.69;;;6.00;100.00
47883;BME280;37739;50.350;7.578;2024-03-23T05:43:27;99065.31;;;6.16;100.00
47883;BME280;37739;50.350;7.578;2024-03-23T05:45:57;99069.88;;;6.04;100.00
47883;BME280;37739;50.350;7.578;2024-03-23T05:48:23;99069.34;;;6.11;100.00
47883;BME280;37739;50.350;7.578;2024-03-23T05:50:49;99084.69;;;6.13;100.00
47883;BME280;37739;50.350;7.578;2024-03-23T05:53:18;99080.31;;;6.29;100.00
47883;BME280;37739;50.350;7.578;2024-03-23T05:55:45;99086.28;;;6.30;100.00
47883;BME280;37739;50.350;7.578;2024-03-23T05:58:12;99091.97;;;5.85;100.00
47883;BME280;37739;50.350;7.578;2024-03-23T06:00:38;99094.09;;;5.76;100.00
47883;BME280;37739;50.350;7.578;2024-03-23T06:03:03;99088.75;;;5.89;100.00
47883;BME280;37739;50.350;7.578;2024-03-23T06:05:29;99088.00;;;5.92;100.00
47883;BME280;37739;50.350;7.578;2024-03-23T06:07:58;99084.16;;;6.00;100.00
47883;BME280;37739;50.350;7.578;2024-03-23T06:10:28;99087.59;;;6.01;100.00
47883;BME280;37739;50.350;7.578;2024-03-23T06:12:54;99090.50;;;6.10;100.00
47883;BME280;37739;50.350;7.578;2024-03-23T06:15:22;99093.09;;;5.92;100.00
47883;BME280;37739;50.350;7.578;2024-03-23T06:17:48;99099.88;;;5.92;100.00
47883;BME280;37739;50.350;7.578;2024-03-23T06:20:16;99095.53;;;5.89;100.00
47883;BME280;37739;50.350;7.578;2024-03-23T06:22:43;99094.88;;;6.13;100.00
47883;BME280;37739;50.350;7.578;2024-03-23T06:25:09;99094.66;;;6.08;100.00
47883;BME280;37739;50.350;7.578;2024-03-23T06:27:34;99101.78;;;5.96;100.00
47883;BME280;37739;50.350;7.578;2024-03-23T06:30:05;99094.66;;;6.08;100.00
47883;BME280;37739;50.350;7.578;2024-03-23T06:32:32;99099.22;;;6.15;100.00
47883;BME280;37739;50.350;7.578;2024-03-23T06:34:58;99101.84;;;6.17;100.00
47883;BME280;37739;50.350;7.578;2024-03-23T06:37:23;99114.06;;;6.24;100.00
47883;BME280;37739;50.350;7.578;2024-03-23T06:39:49;99114.09;;;6.45;100.00
47883;BME280;37739;50.350;7.578;2024-03-23T06:42:17;99119.38;;;6.49;100.00
47883;BME280;37739;50.350;7.578;2024-03-23T06:44:43;99118.16;;;6.61;100.00
47883;BME280;37739;50.350;7.578;2024-03-23T06:47:08;99125.13;;;6.65;100.00
47883;BME280;37739;50.350;7.578;2024-03-23T06:49:34;99139.28;;;6.79;100.00
47883;BME280;37739;50.350;7.578;2024-03-23T06:52:01;99144.97;;;6.93;100.00
47883;BME280;37739;50.350;7.578;2024-03-23T06:54:27;99151.00;;;6.95;100.00
47883;BME280;37739;50.350;7.578;2024-03-23T06:56:53;99156.19;;;6.97;99.83
47883;BME280;37739;50.350;7.578;2024-03-23T06:59:20;99162.97;;;6.77;99.00
47883;BME280;37739;50.350;7.578;2024-03-23T07:01:48;99174.88;;;6.76;100.00
47883;BME280;37739;50.350;7.578;2024-03-23T07:04:13;99167.69;;;6.67;100.00
47883;BME280;37739;50.350;7.578;2024-03-23T07:06:44;99167.28;;;6.78;100.00
47883;BME280;37739;50.350;7.578;2024-03-23T07:09:10;99163.69;;;6.94;100.00
47883;BME280;37739;50.350;7.578;2024-03-23T07:11:40;99166.88;;;7.09;100.00
47883;BME280;37739;50.350;7.578;2024-03-23T07:14:07;99157.28;;;7.24;99.60
47883;BME280;37739;50.350;7.578;2024-03-23T07:16:35;99158.38;;;7.31;99.10
47883;BME280;37739;50.350;7.578;2024-03-23T07:19:00;99163.75;;;7.37;98.43
47883;BME280;37739;50.350;7.578;2024-03-23T07:21:28;99167.47;;;7.45;98.79
47883;BME280;37739;50.350;7.578;2024-03-23T07:23:56;99154.78;;;7.47;98.70
47883;BME280;37739;50.350;7.578;2024-03-23T07:26:21;99152.91;;;7.43;97.43
47883;BME280;37739;50.350;7.578;2024-03-23T07:28:46;99144.50;;;7.45;98.63
47883;BME280;37739;50.350;7.578;2024-03-23T07:31:13;99147.22;;;7.50;98.20
47883;BME280;37739;50.350;7.578;2024-03-23T07:33:47;99145.34;;;7.46;97.35
47883;BME280;37739;50.350;7.578;2024-03-23T07:36:12;99148.28;;;7.55;96.98
47883;BME280;37739;50.350;7.578;2024-03-23T07:38:46;99151.97;;;7.63;96.48
47883;BME280;37739;50.350;7.578;2024-03-23T07:41:15;99157.28;;;7.68;97.04
47883;BME280;37739;50.350;7.578;2024-03-23T07:43:45;99153.84;;;7.67;96.47
47883;BME280;37739;50.350;7.578;2024-03-23T07:46:16;99153.75;;;7.64;95.68
47883;BME280;37739;50.350;7.578;2024-03-23T07:48:45;99159.84;;;7.68;97.05
47883;BME280;37739;50.350;7.578;2024-03-23T07:51:19;99164.59;;;7.81;96.48
47883;BME280;37739;50.350;7.578;2024-03-23T07:53:45;99152.97;;;7.90;96.41
47883;BME280;37739;50.350;7.578;2024-03-23T07:56:17;99162.63;;;7.97;95.90
47883;BME280;37739;50.350;7.578;2024-03-23T07:58:46;99165.19;;;7.98;95.28
47883;BME280;37739;50.350;7.578;2024-03-23T08:01:15;99169.56;;;8.01;95.09
47883;BME280;37739;50.350;7.578;2024-03-23T08:03:42;99176.63;;;8.08;94.84
47883;BME280;37739;50.350;7.578;2024-03-23T08:08:40;99171.78;;;8.16;94.09
47883;BME280;37739;50.350;7.578;2024-03-23T08:11:09;99162.50;;;8.18;93.44
47883;BME280;37739;50.350;7.578;2024-03-23T08:13:35;99172.63;;;8.15;93.34
47883;BME280;37739;50.350;7.578;2024-03-23T08:16:05;99172.19;;;8.26;93.80
47883;BME280;37739;50.350;7.578;2024-03-23T08:18:31;99176.78;;;8.35;93.09
47883;BME280;37739;50.350;7.578;2024-03-23T08:21:01;99176.38;;;8.47;92.99
47883;BME280;37739;50.350;7.578;2024-03-23T08:23:36;99175.72;;;8.53;91.65
47883;BME280;37739;50.350;7.578;2024-03-23T08:26:15;99180.44;;;8.66;91.47
47883;BME280;37739;50.350;7.578;2024-03-23T08:28:40;99172.06;;;8.70;89.46
47883;BME280;37739;50.350;7.578;2024-03-23T08:31:11;99173.13;;;8.77;89.07
47883;BME280;37739;50.350;7.578;2024-03-23T08:33:42;99184.59;;;8.88;88.40
47883;BME280;37739;50.350;7.578;2024-03-23T08:36:10;99173.59;;;8.91;87.33
47883;BME280;37739;50.350;7.578;2024-03-23T08:38:39;99177.38;;;9.02;85.01
47883;BME280;37739;50.350;7.578;2024-03-23T08:41:08;99180.31;;;9.13;86.88
47883;BME280;37739;50.350;7.578;2024-03-23T08:46:06;99179.81;;;9.24;79.95
47883;BME280;37739;50.350;7.578;2024-03-23T08:48:35;99185.31;;;9.37;81.33
47883;BME280;37739;50.350;7.578;2024-03-23T08:51:05;99186.03;;;9.58;80.52
47883;BME280;37739;50.350;7.578;2024-03-23T08:53:34;99187.19;;;9.68;78.16
47883;BME280;37739;50.350;7.578;2024-03-23T08:56:00;99175.19;;;9.67;76.52
47883;BME280;37739;50.350;7.578;2024-03-23T08:58:27;99191.88;;;9.83;76.76
47883;BME280;37739;50.350;7.578;2024-03-23T09:00:56;99188.09;;;9.70;75.38
47883;BME280;37739;50.350;7.578;2024-03-23T09:03:25;99183.41;;;9.57;76.00
47883;BME280;37739;50.350;7.578;2024-03-23T09:05:53;99183.03;;;9.73;74.92
47883;BME280;37739;50.350;7.578;2024-03-23T09:08:19;99179.63;;;10.01;73.86
47883;BME280;37739;50.350;7.578;2024-03-23T09:10:45;99180.13;;;10.18;73.35
47883;BME280;37739;50.350;7.578;2024-03-23T09:13:12;99185.44;;;9.96;72.38
47883;BME280;37739;50.350;7.578;2024-03-23T09:15:49;99188.09;;;9.99;72.30
47883;BME280;37739;50.350;7.578;2024-03-23T09:18:14;99180.38;;;10.28;73.24
47883;BME280;37739;50.350;7.578;2024-03-23T09:20:40;99187.25;;;10.59;71.60
47883;BME280;37739;50.350;7.578;2024-03-23T09:23:10;99181.78;;;10.78;68.37
47883;BME280;37739;50.350;7.578;2024-03-23T09:25:38;99182.06;;;10.91;68.23
47883;BME280;37739;50.350;7.578;2024-03-23T09:28:04;99176.63;;;11.12;66.96
47883;BME280;37739;50.350;7.578;2024-03-23T09:30:32;99172.31;;;10.77;63.03
47883;BME280;37739;50.350;7.578;2024-03-23T09:33:00;99170.31;;;10.34;67.08
47883;BME280;37739;50.350;7.578;2024-03-23T09:35:26;99170.44;;;10.38;68.41
47883;BME280;37739;50.350;7.578;2024-03-23T09:37:54;99172.03;;;10.35;66.61
47883;BME280;37739;50.350;7.578;2024-03-23T09:40:19;99169.13;;;10.22;66.28
47883;BME280;37739;50.350;7.578;2024-03-23T09:42:52;99167.88;;;10.10;66.88
47883;BME280;37739;50.350;7.578;2024-03-23T09:45:21;99169.44;;;10.33;66.43
47883;BME280;37739;50.350;7.578;2024-03-23T09:47:47;99165.69;;;10.52;67.02
47883;BME280;37739;50.350;7.578;2024-03-23T09:50:15;99167.22;;;10.79;67.23
47883;BME280;37739;50.350;7.578;2024-03-23T09:52:41;99163.22;;;11.24;65.21
47883;BME280;37739;50.350;7.578;2024-03-23T09:55:08;99163.47;;;11.34;64.21
47883;BME280;37739;50.350;7.578;2024-03-23T09:57:36;99160.22;;;11.43;63.34
47883;BME280;37739;50.350;7.578;2024-03-23T10:00:03;99159.63;;;11.53;62.76
47883;BME280;37739;50.350;7.578;2024-03-23T10:02:31;99166.06;;;11.72;63.57
47883;BME280;37739;50.350;7.578;2024-03-23T10:04:56;99164.25;;;11.68;62.09
47883;BME280;37739;50.350;7.578;2024-03-23T10:07:25;99150.09;;;11.87;63.43
47883;BME280;37739;50.350;7.578;2024-03-23T10:09:53;99155.72;;;12.09;61.39
47883;BME280;37739;50.350;7.578;2024-03-23T10:12:24;99163.56;;;12.15;60.72
47883;BME280;37739;50.350;7.578;2024-03-23T10:14:49;99161.19;;;12.26;61.14
47883;BME280;37739;50.350;7.578;2024-03-23T10:19:47;99151.59;;;12.61;60.86
47883;BME280;37739;50.350;7.578;2024-03-23T10:22:21;99156.28;;;12.36;60.66
47883;BME280;37739;50.350;7.578;2024-03-23T10:24:48;99157.72;;;12.22;61.71
47883;BME280;37739;50.350;7.578;2024-03-23T10:27:20;99147.34;;;12.19;61.34
47883;BME280;37739;50.350;7.578;2024-03-23T10:29:49;99150.94;;;11.86;63.28
47883;BME280;37739;50.350;7.578;2024-03-23T10:32:17;99153.72;;;11.57;63.34
47883;BME280;37739;50.350;7.578;2024-03-23T10:34:43;99149.81;;;11.37;63.23
47883;BME280;37739;50.350;7.578;2024-03-23T10:37:09;99146.31;;;11.32;63.07
47883;BME280;37739;50.350;7.578;2024-03-23T10:39:42;99148.34;;;11.10;62.51
47883;BME280;37739;50.350;7.578;2024-03-23T10:42:08;99141.97;;;11.31;62.27
47883;BME280;37739;50.350;7.578;2024-03-23T10:44:39;99147.94;;;11.28;62.60
47883;BME280;37739;50.350;7.578;2024-03-23T10:47:09;99141.09;;;11.29;61.64
47883;BME280;37739;50.350;7.578;2024-03-23T10:49:35;99150.91;;;11.10;63.65
47883;BME280;37739;50.350;7.578;2024-03-23T10:52:07;99140.16;;;10.90;64.57
47883;BME280;37739;50.350;7.578;2024-03-23T10:54:32;99148.47;;;10.81;65.24
47883;BME280;37739;50.350;7.578;2024-03-23T10:59:31;99154.72;;;10.58;68.89
47883;BME280;37739;50.350;7.578;2024-03-23T11:02:00;99158.78;;;10.50;69.37
47883;BME280;37739;50.350;7.578;2024-03-23T11:04:35;99161.94;;;10.39;72.92
47883;BME280;37739;50.350;7.578;2024-03-23T11:09:51;99157.50;;;10.34;74.93
47883;BME280;37739;50.350;7.578;2024-03-23T11:14:52;99153.34;;;10.37;75.21
47883;BME280;37739;50.350;7.578;2024-03-23T11:17:24;99142.28;;;10.40;74.87
47883;BME280;37739;50.350;7.578;2024-03-23T11:20:08;99137.25;;;10.45;74.27
47883;BME280;37739;50.350;7.578;2024-03-23T11:22:38;99144.13;;;10.46;74.82
47883;BME280;37739;50.350;7.578;2024-03-23T11:27:47;99168.63;;;9.77;73.90
47883;BME280;37739;50.350;7.578;2024-03-23T11:30:20;99163.78;;;9.03;74.22
47883;BME280;37739;50.350;7.578;2024-03-23T11:32:48;99166.50;;;7.64;82.71
47883;BME280;37739;50.350;7.578;2024-03-23T11:35:34;99169.22;;;7.25;87.34
47883;BME280;37739;50.350;7.578;2024-03-23T11:38:04;99166.47;;;7.21;89.04
47883;BME280;37739;50.350;7.578;2024-03-23T11:40:30;99161.00;;;7.12;88.55
47883;BME280;37739;50.350;7.578;2024-03-23T11:43:01;99168.25;;;7.44;88.62
47883;BME280;37739;50.350;7.578;2024-03-23T11:45:33;99163.84;;;7.40;86.06
47883;BME280;37739;50.350;7.578;2024-03-23T11:50:29;99166.78;;;7.72;86.06
47883;BME280;37739;50.350;7.578;2024-03-23T11:56:01;99166.00;;;7.52;84.16
47883;BME280;37739;50.350;7.578;2024-03-23T11:58:27;99182.38;;;7.57;84.41
47883;BME280;37739;50.350;7.578;2024-03-23T12:00:56;99187.59;;;7.83;84.73
47883;BME280;37739;50.350;7.578;2024-03-23T12:03:22;99204.38;;;7.33;84.38
47883;BME280;37739;50.350;7.578;2024-03-23T12:05:51;99198.22;;;7.06;86.33
47883;BME280;37739;50.350;7.578;2024-03-23T12:08:23;99205.00;;;7.06;88.51
47883;BME280;37739;50.350;7.578;2024-03-23T12:10:53;99212.28;;;6.97;89.44
47883;BME280;37739;50.350;7.578;2024-03-23T12:13:21;99202.34;;;7.24;90.89
47883;BME280;37739;50.350;7.578;2024-03-23T12:15:50;99206.31;;;7.17;89.11
47883;BME280;37739;50.350;7.578;2024-03-23T12:18:15;99207.00;;;7.34;90.57
47883;BME280;37739;50.350;7.578;2024-03-23T12:20:41;99203.72;;;7.59;90.03
47883;BME280;37739;50.350;7.578;2024-03-23T12:23:08;99195.41;;;7.86;88.51
47883;BME280;37739;50.350;7.578;2024-03-23T12:25:38;99191.44;;;7.94;87.02
47883;BME280;37739;50.350;7.578;2024-03-23T12:28:03;99191.16;;;8.09;87.06
47883;BME280;37739;50.350;7.578;2024-03-23T12:30:32;99193.22;;;8.19;86.18
47883;BME280;37739;50.350;7.578;2024-03-23T12:33:00;99192.44;;;8.43;86.05
47883;BME280;37739;50.350;7.578;2024-03-23T12:35:28;99187.97;;;9.13;85.69
47883;BME280;37739;50.350;7.578;2024-03-23T12:37:53;99182.34;;;9.50;84.04
47883;BME280;37739;50.350;7.578;2024-03-23T12:40:18;99186.59;;;9.50;83.03
47883;BME280;37739;50.350;7.578;2024-03-23T12:42:44;99192.63;;;9.52;83.19
47883;BME280;37739;50.350;7.578;2024-03-23T12:45:09;99191.16;;;9.58;81.45
47883;BME280;37739;50.350;7.578;2024-03-23T12:47:37;99173.13;;;10.13;79.59
47883;BME280;37739;50.350;7.578;2024-03-23T12:50:02;99179.50;;;10.57;78.07
47883;BME280;37739;50.350;7.578;2024-03-23T12:52:28;99169.00;;;10.19;77.05
47883;BME280;37739;50.350;7.578;2024-03-23T12:54:55;99173.06;;;9.82;77.05
47883;BME280;37739;50.350;7.578;2024-03-23T12:57:25;99175.00;;;9.61;77.55
47883;BME280;37739;50.350;7.578;2024-03-23T12:59:53;99177.41;;;9.29;77.60
47883;BME280;37739;50.350;7.578;2024-03-23T13:02:19;99182.84;;;9.13;78.03
47883;BME280;37739;50.350;7.578;2024-03-23T13:04:46;99177.06;;;8.93;77.78
47883;BME280;37739;50.350;7.578;2024-03-23T13:07:14;99180.28;;;8.61;78.85
47883;BME280;37739;50.350;7.578;2024-03-23T13:09:44;99160.91;;;8.44;82.23
47883;BME280;37739;50.350;7.578;2024-03-23T13:12:17;99151.69;;;8.25;84.10
47883;BME280;37739;50.350;7.578;2024-03-23T13:14:44;99131.97;;;8.21;81.74
47883;BME280;37739;50.350;7.578;2024-03-23T13:17:14;99113.66;;;9.10;80.40
47883;BME280;37739;50.350;7.578;2024-03-23T13:19:40;99126.09;;;9.82;78.14
47883;BME280;37739;50.350;7.578;2024-03-23T13:22:05;99120.16;;;10.44;77.80
47883;BME280;37739;50.350;7.578;2024-03-23T13:24:31;99130.88;;;10.95;77.70
47883;BME280;37739;50.350;7.578;2024-03-23T13:26:57;99125.41;;;11.18;77.11
47883;BME280;37739;50.350;7.578;2024-03-23T13:29:27;99131.91;;;11.38;76.38
47883;BME280;37739;50.350;7.578;2024-03-23T13:31:54;99128.09;;;11.59;74.90
47883;BME280;37739;50.350;7.578;2024-03-23T13:34:20;99125.88;;;11.77;72.86
47883;BME280;37739;50.350;7.578;2024-03-23T13:36:46;99118.72;;;12.02;73.71
47883;BME280;37739;50.350;7.578;2024-03-23T13:39:12;99120.81;;;12.22;71.73
47883;BME280;37739;50.350;7.578;2024-03-23T13:41:43;99119.22;;;12.27;71.51
47883;BME280;37739;50.350;7.578;2024-03-23T13:44:09;99119.94;;;12.65;69.31
47883;BME280;37739;50.350;7.578;2024-03-23T13:46:41;99109.56;;;12.15;69.32
47883;BME280;37739;50.350;7.578;2024-03-23T13:49:24;99116.41;;;11.34;69.17
47883;BME280;37739;50.350;7.578;2024-03-23T13:51:52;99113.78;;;10.96;71.53
47883;BME280;37739;50.350;7.578;2024-03-23T13:54:26;99112.41;;;10.75;71.02
47883;BME280;37739;50.350;7.578;2024-03-23T13:56:53;99111.06;;;10.56;70.98
47883;BME280;37739;50.350;7.578;2024-03-23T13:59:21;99108.84;;;10.35;73.21
47883;BME280;37739;50.350;7.578;2024-03-23T14:01:48;99120.53;;;10.27;73.10
47883;BME280;37739;50.350;7.578;2024-03-23T14:04:14;99116.94;;;10.20;74.08
47883;BME280;37739;50.350;7.578;2024-03-23T14:06:44;99121.91;;;10.14;75.51
47883;BME280;37739;50.350;7.578;2024-03-23T14:09:12;99115.72;;;10.08;76.39
47883;BME280;37739;50.350;7.578;2024-03-23T14:11:39;99114.91;;;10.09;77.49
47883;BME280;37739;50.350;7.578;2024-03-23T14:14:06;99116.41;;;10.02;77.49
47883;BME280;37739;50.350;7.578;2024-03-23T14:16:32;99113.78;;;9.99;77.62
47883;BME280;37739;50.350;7.578;2024-03-23T14:18:58;99105.97;;;10.26;77.03
47883;BME280;37739;50.350;7.578;2024-03-23T14:21:23;99108.50;;;10.25;77.36